createdAt,value
2022-10-30T00:00:53.130Z,81.48
2022-10-30T00:01:56.233Z,81.49
2022-10-30T00:02:59.843Z,81.42
2022-10-30T00:04:03.225Z,81.38
2022-10-30T00:05:06.560Z,81.39
2022-10-30T00:06:09.753Z,81.37
2022-10-30T00:07:12.750Z,81.38
2022-10-30T00:08:18.491Z,81.36
2022-10-30T00:09:21.679Z,81.31
2022-10-30T00:10:25.203Z,81.35
2022-10-30T00:11:28.891Z,81.25
2022-10-30T00:12:31.766Z,81.28
2022-10-30T00:13:34.975Z,81.26
2022-10-30T00:14:37.912Z,81.32
2022-10-30T00:15:52.191Z,81.28
2022-10-30T00:16:55.138Z,81.27
2022-10-30T00:17:58.276Z,81.29
2022-10-30T00:19:01.554Z,81.30
2022-10-30T00:20:05.318Z,81.29
2022-10-30T00:21:11.242Z,81.35
2022-10-30T00:22:14.251Z,81.25
2022-10-30T00:23:17.298Z,81.21
2022-10-30T00:24:20.153Z,81.19
2022-10-30T00:25:23.421Z,81.16
2022-10-30T00:26:27.480Z,81.12
2022-10-30T00:27:31.270Z,81.12
2022-10-30T00:28:34.958Z,81.11
2022-10-30T00:29:38.141Z,81.14
2022-10-30T00:30:41.009Z,81.11
2022-10-30T00:31:44.074Z,81.14
2022-10-30T00:32:46.918Z,81.14
2022-10-30T00:33:52.341Z,81.04
2022-10-30T00:34:55.292Z,81.00
2022-10-30T00:35:58.718Z,81.06
2022-10-30T00:37:01.768Z,80.96
2022-10-30T00:38:05.004Z,80.89
2022-10-30T00:39:08.035Z,80.86
2022-10-30T00:40:16.706Z,80.85
2022-10-30T00:41:22.389Z,80.82
2022-10-30T00:42:31.160Z,80.86
2022-10-30T00:43:37.714Z,80.83
2022-10-30T00:44:54.767Z,80.73
2022-10-30T00:46:01.871Z,80.71
2022-10-30T00:47:14.593Z,80.62
2022-10-30T00:48:17.790Z,80.61
2022-10-30T00:49:21.456Z,80.69
2022-10-30T00:50:30.857Z,80.71
2022-10-30T00:51:36.620Z,80.70
2022-10-30T00:52:43.225Z,80.83
2022-10-30T00:53:47.522Z,80.88
2022-10-30T00:54:52.782Z,80.80
2022-10-30T00:55:58.881Z,81.00
2022-10-30T00:57:04.617Z,81.08
2022-10-30T00:58:10.612Z,81.11
2022-10-30T00:59:17.173Z,81.11
2022-10-30T01:00:23.623Z,81.19
2022-10-30T01:01:30.324Z,81.21
2022-10-30T01:02:33.944Z,81.23
2022-10-30T01:03:39.074Z,81.30
2022-10-30T01:04:44.506Z,81.40
2022-10-30T01:05:51.310Z,81.48
2022-10-30T01:06:54.380Z,81.54
2022-10-30T01:07:57.612Z,81.59
2022-10-30T01:09:02.037Z,81.62
2022-10-30T01:10:06.283Z,81.74
2022-10-30T01:11:10.169Z,81.86
2022-10-30T01:12:13.619Z,81.97
2022-10-30T01:13:19.694Z,82.03
2022-10-30T01:14:22.779Z,82.11
2022-10-30T01:15:32.302Z,82.11
2022-10-30T01:16:54.098Z,82.18
2022-10-30T01:18:02.486Z,82.23
2022-10-30T01:19:26.833Z,82.33
2022-10-30T01:20:39.777Z,82.41
2022-10-30T01:21:55.435Z,82.45
2022-10-30T01:23:07.815Z,82.52
2022-10-30T01:24:14.381Z,82.60
2022-10-30T01:25:36.300Z,82.68
2022-10-30T01:27:02.388Z,82.69
2022-10-30T01:28:17.876Z,82.77
2022-10-30T01:29:24.588Z,82.86
2022-10-30T01:30:48.979Z,82.83
2022-10-30T01:32:00.270Z,82.87
2022-10-30T01:33:18.874Z,82.94
2022-10-30T01:34:37.380Z,82.95
2022-10-30T01:36:08.153Z,83.09
2022-10-30T01:37:32.657Z,83.07
2022-10-30T01:38:42.121Z,83.08
2022-10-30T01:39:45.113Z,83.10
2022-10-30T01:40:48.186Z,83.13
2022-10-30T01:41:51.236Z,83.12
2022-10-30T01:42:57.540Z,83.21
2022-10-30T01:44:06.018Z,83.16
2022-10-30T01:45:29.215Z,83.13
2022-10-30T01:46:47.930Z,83.15
2022-10-30T01:48:27.645Z,83.18
2022-10-30T01:49:53.918Z,83.27
2022-10-30T01:51:15.699Z,83.21
2022-10-30T01:52:34.565Z,83.31
2022-10-30T01:53:57.874Z,83.30
2022-10-30T01:55:21.080Z,83.28
2022-10-30T01:56:40.425Z,83.42
2022-10-30T01:57:49.478Z,83.36
2022-10-30T01:59:03.278Z,83.51
2022-10-30T02:00:09.650Z,83.41
2022-10-30T02:01:21.116Z,83.44
2022-10-30T02:02:24.618Z,83.38
2022-10-30T02:03:30.072Z,83.39
2022-10-30T02:04:33.573Z,83.35
2022-10-30T02:05:40.254Z,83.39
2022-10-30T02:06:43.410Z,83.31
2022-10-30T02:07:46.550Z,83.40
2022-10-30T02:08:49.596Z,83.27
2022-10-30T02:09:53.875Z,83.27
2022-10-30T02:10:57.967Z,83.25
2022-10-30T02:12:09.546Z,83.25
2022-10-30T02:13:12.931Z,83.22
2022-10-30T02:14:21.699Z,83.24
2022-10-30T02:15:24.789Z,83.30
2022-10-30T02:16:29.629Z,83.24
2022-10-30T02:17:32.619Z,83.32
2022-10-30T02:18:35.830Z,83.30
2022-10-30T02:19:39.091Z,83.23
2022-10-30T02:20:42.031Z,83.22
2022-10-30T02:21:45.286Z,83.34
2022-10-30T02:22:51.856Z,83.38
2022-10-30T02:23:54.023Z,83.31
2022-10-30T02:24:57.055Z,83.39
2022-10-30T02:26:00.523Z,83.35
2022-10-30T02:27:04.032Z,83.32
2022-10-30T02:28:07.906Z,83.31
2022-10-30T02:29:11.224Z,83.44
2022-10-30T02:30:14.598Z,83.45
2022-10-30T02:31:18.739Z,83.47
2022-10-30T02:32:21.751Z,83.47
2022-10-30T02:33:24.849Z,83.58
2022-10-30T02:34:27.883Z,83.53
2022-10-30T02:35:34.852Z,83.49
2022-10-30T02:36:37.933Z,83.61
2022-10-30T02:37:41.099Z,83.48
2022-10-30T02:38:45.385Z,83.59
2022-10-30T02:39:48.315Z,83.53
2022-10-30T02:40:51.349Z,83.54
2022-10-30T02:41:54.447Z,83.59
2022-10-30T02:42:57.987Z,83.49
2022-10-30T02:44:01.469Z,83.52
2022-10-30T02:45:04.853Z,83.59
2022-10-30T02:46:07.967Z,83.55
2022-10-30T02:47:10.882Z,83.52
2022-10-30T02:48:13.917Z,83.52
2022-10-30T02:49:17.017Z,83.52
2022-10-30T02:50:21.256Z,83.59
2022-10-30T02:51:24.461Z,83.57
2022-10-30T02:52:27.410Z,83.54
2022-10-30T02:53:30.872Z,83.59
2022-10-30T02:54:34.519Z,83.65
2022-10-30T02:55:37.554Z,83.55
2022-10-30T02:56:40.931Z,83.57
2022-10-30T02:57:44.091Z,83.54
2022-10-30T02:58:47.477Z,83.50
2022-10-30T02:59:50.416Z,83.51
2022-10-30T03:00:53.499Z,83.57
2022-10-30T03:01:56.976Z,83.64
2022-10-30T03:03:00.909Z,83.72
2022-10-30T03:04:04.138Z,83.73
2022-10-30T03:05:07.511Z,83.66
2022-10-30T03:06:15.136Z,83.72
2022-10-30T03:07:18.226Z,83.87
2022-10-30T03:08:21.171Z,83.86
2022-10-30T03:09:24.121Z,83.88
2022-10-30T03:10:27.129Z,83.91
2022-10-30T03:11:30.347Z,83.83
2022-10-30T03:12:33.230Z,83.86
2022-10-30T03:13:37.457Z,83.92
2022-10-30T03:14:40.545Z,83.89
2022-10-30T03:15:43.626Z,83.92
2022-10-30T03:16:48.396Z,83.93
2022-10-30T03:17:52.144Z,83.97
2022-10-30T03:18:55.640Z,84.05
2022-10-30T03:19:58.841Z,83.95
2022-10-30T03:21:04.177Z,84.03
2022-10-30T03:22:07.457Z,84.09
2022-10-30T03:23:10.504Z,84.07
2022-10-30T03:24:14.488Z,84.09
2022-10-30T03:25:19.546Z,84.11
2022-10-30T03:26:23.013Z,84.20
2022-10-30T03:27:27.954Z,84.19
2022-10-30T03:28:32.126Z,84.20
2022-10-30T03:29:35.245Z,84.16
2022-10-30T03:30:38.314Z,84.17
2022-10-30T03:31:41.342Z,84.15
2022-10-30T03:32:48.801Z,84.17
2022-10-30T03:33:51.862Z,84.23
2022-10-30T03:34:54.812Z,84.18
2022-10-30T03:35:57.647Z,84.29
2022-10-30T03:37:00.782Z,84.20
2022-10-30T03:38:04.138Z,84.23
2022-10-30T03:39:07.495Z,84.24
2022-10-30T03:40:11.613Z,84.26
2022-10-30T03:41:15.130Z,84.27
2022-10-30T03:42:19.643Z,84.35
2022-10-30T03:43:24.478Z,84.26
2022-10-30T03:44:28.274Z,84.26
2022-10-30T03:45:34.733Z,84.28
2022-10-30T03:46:39.565Z,84.38
2022-10-30T03:47:44.396Z,84.26
2022-10-30T03:48:50.453Z,84.36
2022-10-30T03:49:53.436Z,84.26
2022-10-30T03:50:58.114Z,84.27
2022-10-30T03:52:02.253Z,84.26
2022-10-30T03:53:05.186Z,84.31
2022-10-30T03:54:08.197Z,84.28
2022-10-30T03:55:11.233Z,84.25
2022-10-30T03:56:15.791Z,84.28
2022-10-30T03:57:20.632Z,84.32
2022-10-30T03:58:29.172Z,84.27
2022-10-30T03:59:34.114Z,84.33
2022-10-30T04:00:55.667Z,84.24
2022-10-30T04:01:58.950Z,84.28
2022-10-30T04:03:03.933Z,84.30
2022-10-30T04:04:07.098Z,84.29
2022-10-30T04:05:10.868Z,84.35
2022-10-30T04:06:14.255Z,84.28
2022-10-30T04:07:17.203Z,84.29
2022-10-30T04:08:20.265Z,84.30
2022-10-30T04:09:23.828Z,84.29
2022-10-30T04:10:27.657Z,84.25
2022-10-30T04:11:30.908Z,84.28
2022-10-30T04:12:34.968Z,84.25
2022-10-30T04:13:37.920Z,84.30
2022-10-30T04:14:40.890Z,84.26
2022-10-30T04:15:43.845Z,84.23
2022-10-30T04:16:48.192Z,84.20
2022-10-30T04:17:51.434Z,84.38
2022-10-30T04:18:54.571Z,84.30
2022-10-30T04:19:57.856Z,84.41
2022-10-30T04:21:00.956Z,84.40
2022-10-30T04:22:04.292Z,84.40
2022-10-30T04:23:10.359Z,84.50
2022-10-30T04:24:15.501Z,84.42
2022-10-30T04:25:18.958Z,84.40
2022-10-30T04:26:24.046Z,84.44
2022-10-30T04:27:26.975Z,84.47
2022-10-30T04:28:30.030Z,84.45
2022-10-30T04:29:33.191Z,84.44
2022-10-30T04:30:38.102Z,84.46
2022-10-30T04:31:41.240Z,84.64
2022-10-30T04:32:52.287Z,84.60
2022-10-30T04:33:55.350Z,84.64
2022-10-30T04:34:58.414Z,84.68
2022-10-30T04:36:01.571Z,84.74
2022-10-30T04:37:07.224Z,84.78
2022-10-30T04:38:12.402Z,84.87
2022-10-30T04:39:15.467Z,84.84
2022-10-30T04:40:18.801Z,84.92
2022-10-30T04:41:23.445Z,84.96
2022-10-30T04:42:28.951Z,85.01
2022-10-30T04:43:31.992Z,85.19
2022-10-30T04:44:34.837Z,85.20
2022-10-30T04:45:39.227Z,85.37
2022-10-30T04:46:42.518Z,85.39
2022-10-30T04:47:46.474Z,85.48
2022-10-30T04:48:49.626Z,85.56
2022-10-30T04:49:52.743Z,85.62
2022-10-30T04:51:00.319Z,85.65
2022-10-30T04:52:04.349Z,85.71
2022-10-30T04:53:16.287Z,85.90
2022-10-30T04:54:21.469Z,86.00
2022-10-30T04:55:24.430Z,86.10
2022-10-30T04:56:27.552Z,86.22
2022-10-30T04:57:33.860Z,86.41
2022-10-30T04:58:36.909Z,86.47
2022-10-30T04:59:41.050Z,86.59
2022-10-30T05:00:44.103Z,86.69
2022-10-30T05:01:48.228Z,86.85
2022-10-30T05:02:51.286Z,86.91
2022-10-30T05:03:54.998Z,87.02
2022-10-30T05:04:58.422Z,87.19
2022-10-30T05:06:05.096Z,87.27
2022-10-30T05:07:08.656Z,87.27
2022-10-30T05:08:11.597Z,87.38
2022-10-30T05:09:15.066Z,87.45
2022-10-30T05:10:18.602Z,87.47
2022-10-30T05:11:21.736Z,87.53
2022-10-30T05:12:24.803Z,87.67
2022-10-30T05:13:29.639Z,87.74
2022-10-30T05:14:33.805Z,87.77
2022-10-30T05:15:37.257Z,88.00
2022-10-30T05:16:40.403Z,88.05
2022-10-30T05:17:43.442Z,88.13
2022-10-30T05:18:46.389Z,88.09
2022-10-30T05:19:49.467Z,88.15
2022-10-30T05:20:52.507Z,88.23
2022-10-30T05:21:55.556Z,88.30
2022-10-30T05:22:59.589Z,88.43
2022-10-30T05:24:02.744Z,88.42
2022-10-30T05:25:07.742Z,88.49
2022-10-30T05:26:12.977Z,88.56
2022-10-30T05:27:16.054Z,88.62
2022-10-30T05:28:19.183Z,88.67
2022-10-30T05:29:23.965Z,88.73
2022-10-30T05:30:28.536Z,88.83
2022-10-30T05:31:31.498Z,88.80
2022-10-30T05:32:45.400Z,88.84
2022-10-30T05:33:48.461Z,88.90
2022-10-30T05:34:51.578Z,88.93
2022-10-30T05:35:56.336Z,88.99
2022-10-30T05:37:00.777Z,89.01
2022-10-30T05:38:06.133Z,89.07
2022-10-30T05:39:09.179Z,89.16
2022-10-30T05:40:14.411Z,89.29
2022-10-30T05:41:17.690Z,89.28
2022-10-30T05:42:20.667Z,89.33
2022-10-30T05:43:23.672Z,89.33
2022-10-30T05:44:47.302Z,89.44
2022-10-30T05:45:31.784Z,89.50
2022-10-30T05:46:35.031Z,89.53
2022-10-30T05:48:00.306Z,89.58
2022-10-30T05:49:05.461Z,89.67
2022-10-30T05:50:10.148Z,89.85
2022-10-30T05:51:13.244Z,89.83
2022-10-30T05:52:18.112Z,89.92
2022-10-30T05:53:21.859Z,90.04
2022-10-30T05:54:24.971Z,90.08
2022-10-30T05:55:41.743Z,90.07
2022-10-30T05:56:46.705Z,90.09
2022-10-30T05:57:50.136Z,90.23
2022-10-30T05:58:52.991Z,90.26
2022-10-30T05:59:56.213Z,90.25
2022-10-30T06:00:59.421Z,90.27
2022-10-30T06:02:19.008Z,90.40
2022-10-30T06:03:23.106Z,90.44
2022-10-30T06:04:26.837Z,90.39
2022-10-30T06:05:31.795Z,90.39
2022-10-30T06:06:34.962Z,90.38
2022-10-30T06:07:38.302Z,90.40
2022-10-30T06:08:42.572Z,90.42
2022-10-30T06:09:47.453Z,90.53
2022-10-30T06:11:08.843Z,90.55
2022-10-30T06:12:13.674Z,90.52
2022-10-30T06:13:21.299Z,90.54
2022-10-30T06:14:26.350Z,90.55
2022-10-30T06:15:32.090Z,90.54
2022-10-30T06:16:35.165Z,90.70
2022-10-30T06:17:49.454Z,90.66
2022-10-30T06:18:54.381Z,90.74
2022-10-30T06:19:57.357Z,90.73
2022-10-30T06:21:10.725Z,90.86
2022-10-30T06:22:21.484Z,90.80
2022-10-30T06:23:26.253Z,90.91
2022-10-30T06:24:31.159Z,90.85
2022-10-30T06:25:41.394Z,90.88
2022-10-30T06:26:49.044Z,90.89
2022-10-30T06:27:52.014Z,90.85
2022-10-30T06:28:55.146Z,90.85
2022-10-30T06:29:58.085Z,90.91
2022-10-30T06:31:01.116Z,90.90
2022-10-30T06:32:06.903Z,90.82
2022-10-30T06:33:10.700Z,90.77
2022-10-30T06:34:15.519Z,90.73
2022-10-30T06:35:18.593Z,90.72
2022-10-30T06:36:22.135Z,90.69
2022-10-30T06:37:25.294Z,90.67
2022-10-30T06:38:28.348Z,90.64
2022-10-30T06:39:31.729Z,90.74
2022-10-30T06:40:36.620Z,90.74
2022-10-30T06:41:57.838Z,90.56
2022-10-30T06:43:11.913Z,90.52
2022-10-30T06:44:19.458Z,90.61
2022-10-30T06:45:24.338Z,90.61
2022-10-30T06:46:30.768Z,90.50
2022-10-30T06:47:36.714Z,90.48
2022-10-30T06:48:39.701Z,90.50
2022-10-30T06:49:42.671Z,90.47
2022-10-30T06:50:45.626Z,90.50
2022-10-30T06:51:50.504Z,90.40
2022-10-30T06:52:55.023Z,90.35
2022-10-30T06:53:58.064Z,90.42
2022-10-30T06:55:11.972Z,90.40
2022-10-30T06:56:22.836Z,90.35
2022-10-30T06:57:27.704Z,90.29
2022-10-30T06:58:41.646Z,90.34
2022-10-30T06:59:46.974Z,90.27
2022-10-30T07:01:00.708Z,90.33
2022-10-30T07:02:11.873Z,90.25
2022-10-30T07:03:16.697Z,90.23
2022-10-30T07:04:20.059Z,90.31
2022-10-30T07:05:23.254Z,90.24
2022-10-30T07:06:26.371Z,90.18
2022-10-30T07:07:29.703Z,90.14
2022-10-30T07:08:32.810Z,90.04
2022-10-30T07:09:35.977Z,90.04
2022-10-30T07:10:39.104Z,90.04
2022-10-30T07:12:04.081Z,90.04
2022-10-30T07:13:21.902Z,90.01
2022-10-30T07:14:43.013Z,90.00
2022-10-30T07:15:47.918Z,89.95
2022-10-30T07:16:54.731Z,89.89
2022-10-30T07:18:02.594Z,89.87
2022-10-30T07:19:07.171Z,89.77
2022-10-30T07:20:10.813Z,89.79
2022-10-30T07:21:13.812Z,89.64
2022-10-30T07:22:17.553Z,89.60
2022-10-30T07:23:22.924Z,89.64
2022-10-30T07:24:26.705Z,89.53
2022-10-30T07:25:31.436Z,89.46
2022-10-30T07:26:39.163Z,89.44
2022-10-30T07:27:49.891Z,89.40
2022-10-30T07:29:00.707Z,89.37
2022-10-30T07:30:14.097Z,89.47
2022-10-30T07:31:28.953Z,89.38
2022-10-30T07:32:28.720Z,89.40
2022-10-30T07:33:42.571Z,89.51
2022-10-30T07:34:47.368Z,89.40
2022-10-30T07:36:10.575Z,89.47
2022-10-30T07:37:15.344Z,89.38
2022-10-30T07:38:20.131Z,89.40
2022-10-30T07:39:25.030Z,89.37
2022-10-30T07:40:30.175Z,89.31
2022-10-30T07:41:37.856Z,89.32
2022-10-30T07:43:01.519Z,89.29
2022-10-30T07:44:09.636Z,89.16
2022-10-30T07:45:31.499Z,89.11
2022-10-30T07:46:52.701Z,89.09
2022-10-30T07:48:01.266Z,89.04
2022-10-30T07:49:09.346Z,89.05
2022-10-30T07:50:20.069Z,89.03
2022-10-30T07:51:24.714Z,89.04
2022-10-30T07:52:32.672Z,89.13
2022-10-30T07:53:36.462Z,89.08
2022-10-30T07:54:40.516Z,89.00
2022-10-30T07:56:01.673Z,88.94
2022-10-30T07:57:22.716Z,88.97
2022-10-30T07:58:45.792Z,88.96
2022-10-30T07:59:55.884Z,88.88
2022-10-30T08:01:16.695Z,88.99
2022-10-30T08:02:20.122Z,88.96
2022-10-30T08:03:25.273Z,88.78
2022-10-30T08:04:30.298Z,88.75
2022-10-30T08:05:35.261Z,88.73
2022-10-30T08:06:45.974Z,88.64
2022-10-30T08:07:49.166Z,88.43
2022-10-30T08:08:52.125Z,88.40
2022-10-30T08:09:57.204Z,88.37
2022-10-30T08:11:00.489Z,88.39
2022-10-30T08:12:03.993Z,88.33
2022-10-30T08:13:07.081Z,88.26
2022-10-30T08:14:10.300Z,88.23
2022-10-30T08:15:13.480Z,88.16
2022-10-30T08:16:17.758Z,88.12
2022-10-30T08:17:21.378Z,88.10
2022-10-30T08:18:25.112Z,87.91
2022-10-30T08:19:28.524Z,87.90
2022-10-30T08:20:31.527Z,87.91
2022-10-30T08:21:34.615Z,87.88
2022-10-30T08:22:56.708Z,87.78
2022-10-30T08:24:00.612Z,87.68
2022-10-30T08:25:05.722Z,87.62
2022-10-30T08:26:09.141Z,87.58
2022-10-30T08:27:12.343Z,87.60
2022-10-30T08:28:15.412Z,87.41
2022-10-30T08:29:19.686Z,87.28
2022-10-30T08:30:26.081Z,87.20
2022-10-30T08:31:30.369Z,87.28
2022-10-30T08:32:41.148Z,87.07
2022-10-30T08:34:02.787Z,86.98
2022-10-30T08:35:11.809Z,86.89
2022-10-30T08:36:16.082Z,86.85
2022-10-30T08:37:19.220Z,86.69
2022-10-30T08:38:22.828Z,86.67
2022-10-30T08:39:27.926Z,86.60
2022-10-30T08:40:33.069Z,86.38
2022-10-30T08:41:38.166Z,86.23
2022-10-30T08:42:41.204Z,86.21
2022-10-30T08:43:46.146Z,86.25
2022-10-30T08:44:49.108Z,86.17
2022-10-30T08:46:06.013Z,86.13
2022-10-30T08:47:09.093Z,86.01
2022-10-30T08:48:14.910Z,86.01
2022-10-30T08:49:19.287Z,86.00
2022-10-30T08:50:24.165Z,86.03
2022-10-30T08:51:27.478Z,85.80
2022-10-30T08:52:30.430Z,85.75
2022-10-30T08:53:33.608Z,85.70
2022-10-30T08:54:36.969Z,85.54
2022-10-30T08:55:40.740Z,85.62
2022-10-30T08:56:45.618Z,85.55
2022-10-30T08:57:49.218Z,85.53
2022-10-30T08:58:52.635Z,85.53
2022-10-30T08:59:55.798Z,85.61
2022-10-30T09:01:06.352Z,85.46
2022-10-30T09:02:11.577Z,85.46
2022-10-30T09:03:33.311Z,85.44
2022-10-30T09:04:41.304Z,85.53
2022-10-30T09:05:59.443Z,85.49
2022-10-30T09:07:06.449Z,85.35
2022-10-30T09:08:28.474Z,85.46
2022-10-30T09:09:36.388Z,85.31
2022-10-30T09:10:40.682Z,85.31
2022-10-30T09:11:43.913Z,85.30
2022-10-30T09:12:47.135Z,85.24
2022-10-30T09:13:50.248Z,85.06
2022-10-30T09:14:53.688Z,85.03
2022-10-30T09:16:03.807Z,85.08
2022-10-30T09:17:09.140Z,85.07
2022-10-30T09:18:12.627Z,84.77
2022-10-30T09:19:18.790Z,84.70
2022-10-30T09:20:20.780Z,84.72
2022-10-30T09:21:23.973Z,84.49
2022-10-30T09:22:27.972Z,84.35
2022-10-30T09:23:31.135Z,84.21
2022-10-30T09:24:36.999Z,84.13
2022-10-30T09:25:44.806Z,83.99
2022-10-30T09:26:55.535Z,84.01
2022-10-30T09:28:03.045Z,83.83
2022-10-30T09:29:07.823Z,83.79
2022-10-30T09:30:28.555Z,83.74
2022-10-30T09:31:31.928Z,83.55
2022-10-30T09:32:35.254Z,83.51
2022-10-30T09:33:40.416Z,83.40
2022-10-30T09:35:01.791Z,83.29
2022-10-30T09:36:10.116Z,83.09
2022-10-30T09:37:13.235Z,83.19
2022-10-30T09:38:18.257Z,83.06
2022-10-30T09:39:21.469Z,82.91
2022-10-30T09:40:43.535Z,82.95
2022-10-30T09:41:59.440Z,82.76
2022-10-30T09:43:10.244Z,82.65
2022-10-30T09:44:16.907Z,82.47
2022-10-30T09:45:44.651Z,82.30
2022-10-30T09:47:00.091Z,81.80
2022-10-30T09:48:27.313Z,81.28
2022-10-30T09:49:56.713Z,81.27
2022-10-30T09:51:08.486Z,81.25
2022-10-30T09:52:27.327Z,81.20
2022-10-30T09:53:38.177Z,81.16
2022-10-30T09:54:49.649Z,81.18
2022-10-30T09:56:07.107Z,81.12
2022-10-30T09:57:18.651Z,81.02
2022-10-30T09:58:25.203Z,81.08
2022-10-30T09:59:32.069Z,80.80
2022-10-30T10:00:41.237Z,80.70
2022-10-30T10:01:50.396Z,80.67
2022-10-30T10:03:00.476Z,80.53
2022-10-30T10:04:31.950Z,80.41
2022-10-30T10:05:55.550Z,80.27
2022-10-30T10:07:29.814Z,80.04
2022-10-30T10:10:07.447Z,80.18
2022-10-30T10:11:27.923Z,80.20
2022-10-30T10:12:34.371Z,80.26
2022-10-30T10:13:50.096Z,80.09
2022-10-30T10:14:56.340Z,79.92
2022-10-30T10:16:20.281Z,79.95
2022-10-30T10:17:29.892Z,79.63
2022-10-30T10:18:36.610Z,79.16
2022-10-30T10:19:43.189Z,78.96
2022-10-30T10:20:49.891Z,78.98
2022-10-30T10:21:58.928Z,78.76
2022-10-30T10:23:05.604Z,78.75
2022-10-30T10:24:19.556Z,78.60
2022-10-30T10:25:20.677Z,78.52
2022-10-30T10:26:33.382Z,78.17
2022-10-30T10:28:02.213Z,78.02
2022-10-30T10:29:11.569Z,77.60
2022-10-30T10:30:21.150Z,77.66
2022-10-30T10:31:27.733Z,77.46
2022-10-30T10:33:07.429Z,77.37
2022-10-30T10:34:28.887Z,76.81
2022-10-30T10:35:58.484Z,76.44
2022-10-30T10:37:11.168Z,76.26
2022-10-30T10:38:41.857Z,75.86
2022-10-30T10:39:57.749Z,75.84
2022-10-30T10:41:07.765Z,75.84
2022-10-30T10:42:26.198Z,75.76
2022-10-30T10:44:03.200Z,75.71
2022-10-30T10:45:33.979Z,75.57
2022-10-30T10:46:43.856Z,75.70
2022-10-30T10:47:59.645Z,75.78
2022-10-30T10:49:27.685Z,75.71
2022-10-30T10:50:34.363Z,75.67
2022-10-30T10:51:49.453Z,75.49
2022-10-30T10:53:02.162Z,75.46
2022-10-30T10:54:18.026Z,75.56
2022-10-30T10:55:24.772Z,75.41
2022-10-30T10:56:31.686Z,75.42
2022-10-30T10:57:37.879Z,75.37
2022-10-30T10:58:47.177Z,75.19
2022-10-30T10:59:53.944Z,75.00
2022-10-30T11:01:00.145Z,74.84
2022-10-30T11:02:09.810Z,74.63
2022-10-30T11:04:43.619Z,74.17
2022-10-30T11:06:00.639Z,73.90
2022-10-30T11:07:13.577Z,73.99
2022-10-30T11:08:28.868Z,73.88
2022-10-30T11:09:32.223Z,73.82
2022-10-30T11:10:35.483Z,73.56
2022-10-30T11:11:38.563Z,73.26
2022-10-30T11:12:42.053Z,73.23
2022-10-30T11:13:45.336Z,73.13
2022-10-30T11:14:48.516Z,72.90
2022-10-30T11:15:55.073Z,72.54
2022-10-30T11:17:13.906Z,72.50
2022-10-30T11:18:17.045Z,72.41
2022-10-30T11:19:20.302Z,72.24
2022-10-30T11:20:38.757Z,72.14
2022-10-30T11:21:53.584Z,72.13
2022-10-30T11:22:57.023Z,71.97
2022-10-30T11:24:00.662Z,71.93
2022-10-30T11:25:18.672Z,71.90
2022-10-30T11:26:25.296Z,71.71
2022-10-30T11:27:30.175Z,71.82
2022-10-30T11:28:42.982Z,71.71
2022-10-30T11:29:52.676Z,71.59
2022-10-30T11:30:59.628Z,71.46
2022-10-30T11:32:05.088Z,71.27
2022-10-30T11:33:22.540Z,71.25
2022-10-30T11:34:34.627Z,71.22
2022-10-30T11:35:42.725Z,71.17
2022-10-30T11:36:47.747Z,71.23
2022-10-30T11:38:15.539Z,71.18
2022-10-30T11:39:24.318Z,71.09
2022-10-30T11:40:27.336Z,70.79
2022-10-30T11:41:32.132Z,70.63
2022-10-30T11:42:36.022Z,70.43
2022-10-30T11:43:41.141Z,70.51
2022-10-30T11:44:47.444Z,70.50
2022-10-30T11:45:51.497Z,70.35
2022-10-30T11:46:55.190Z,70.29
2022-10-30T11:48:02.591Z,70.07
2022-10-30T11:49:04.714Z,69.76
2022-10-30T11:50:17.332Z,69.82
2022-10-30T11:51:32.925Z,69.73
2022-10-30T11:52:39.359Z,69.72
2022-10-30T11:53:46.045Z,69.70
2022-10-30T11:54:52.790Z,69.70
2022-10-30T11:55:58.018Z,69.56
2022-10-30T11:57:00.980Z,69.39
2022-10-30T11:58:05.754Z,69.40
2022-10-30T11:59:12.510Z,69.26
2022-10-30T12:00:24.874Z,69.27
2022-10-30T12:01:30.840Z,69.21
2022-10-30T12:02:42.549Z,68.92
2022-10-30T12:03:45.769Z,69.00
2022-10-30T12:04:51.585Z,68.79
2022-10-30T12:06:14.983Z,68.82
2022-10-30T12:07:25.747Z,68.71
2022-10-30T12:08:28.931Z,68.69
2022-10-30T12:09:31.918Z,68.59
2022-10-30T12:10:59.761Z,68.46
2022-10-30T12:12:06.906Z,68.35
2022-10-30T12:13:16.103Z,68.29
2022-10-30T12:14:24.154Z,68.35
2022-10-30T12:15:27.745Z,68.27
2022-10-30T12:16:32.586Z,68.37
2022-10-30T12:17:37.474Z,68.36
2022-10-30T12:18:41.581Z,68.41
2022-10-30T12:19:51.124Z,68.50
2022-10-30T12:20:57.170Z,68.25
2022-10-30T12:22:01.007Z,68.13
2022-10-30T12:23:12.441Z,68.18
2022-10-30T12:24:30.922Z,68.06
2022-10-30T12:25:34.048Z,67.73
2022-10-30T12:26:38.761Z,67.41
2022-10-30T12:27:42.041Z,67.24
2022-10-30T12:29:00.193Z,67.16
2022-10-30T12:30:10.446Z,67.00
2022-10-30T12:32:54.947Z,66.80
2022-10-30T12:34:07.812Z,66.80
2022-10-30T12:35:23.625Z,66.69
2022-10-30T12:36:29.968Z,66.76
2022-10-30T12:37:36.547Z,66.76
2022-10-30T12:38:46.029Z,66.72
2022-10-30T12:40:13.891Z,66.47
2022-10-30T12:41:35.269Z,66.50
2022-10-30T12:42:41.931Z,66.45
2022-10-30T12:43:48.462Z,66.49
2022-10-30T12:45:29.558Z,66.33
2022-10-30T12:46:42.077Z,66.39
2022-10-30T12:48:01.346Z,66.23
2022-10-30T12:49:08.362Z,66.30
2022-10-30T12:50:21.132Z,66.12
2022-10-30T12:51:42.819Z,66.10
2022-10-30T12:52:58.657Z,66.14
2022-10-30T12:54:11.301Z,66.11
2022-10-30T12:55:33.145Z,66.13
2022-10-30T12:56:40.081Z,66.16
2022-10-30T12:57:46.328Z,66.24
2022-10-30T12:58:53.034Z,66.34
2022-10-30T13:00:08.499Z,66.39
2022-10-30T13:01:26.062Z,66.43
2022-10-30T13:02:52.217Z,66.49
2022-10-30T13:04:10.881Z,66.55
2022-10-30T13:05:39.016Z,66.65
2022-10-30T13:06:51.898Z,66.60
2022-10-30T13:08:04.261Z,66.60
2022-10-30T13:09:10.930Z,66.57
2022-10-30T13:10:23.438Z,66.46
2022-10-30T13:11:48.144Z,66.40
2022-10-30T13:12:55.968Z,66.27
2022-10-30T13:14:01.271Z,66.05
2022-10-30T13:15:10.856Z,65.84
2022-10-30T13:16:28.520Z,65.78
2022-10-30T13:17:31.615Z,65.70
2022-10-30T13:18:35.556Z,65.68
2022-10-30T13:19:44.051Z,65.59
2022-10-30T13:20:51.034Z,65.61
2022-10-30T13:22:09.609Z,65.34
2022-10-30T13:23:19.412Z,65.33
2022-10-30T13:24:34.675Z,65.24
2022-10-30T13:25:44.147Z,65.10
2022-10-30T13:27:05.866Z,65.14
2022-10-30T13:28:31.361Z,65.15
2022-10-30T13:29:37.956Z,65.13
2022-10-30T13:30:44.744Z,65.25
2022-10-30T13:32:24.761Z,65.33
2022-10-30T13:33:37.077Z,65.33
2022-10-30T13:35:02.091Z,65.41
2022-10-30T13:36:20.881Z,65.58
2022-10-30T13:37:33.435Z,65.65
2022-10-30T13:38:49.058Z,65.38
2022-10-30T13:40:01.531Z,65.41
2022-10-30T13:41:08.170Z,65.27
2022-10-30T13:42:43.812Z,65.09
2022-10-30T13:44:10.031Z,65.01
2022-10-30T13:45:28.204Z,64.73
2022-10-30T13:46:40.386Z,64.68
2022-10-30T13:47:55.920Z,64.42
2022-10-30T13:49:08.839Z,64.33
2022-10-30T13:50:27.759Z,64.25
2022-10-30T13:51:57.445Z,63.73
2022-10-30T13:53:03.853Z,63.48
2022-10-30T13:54:28.578Z,63.13
2022-10-30T13:55:34.593Z,62.86
2022-10-30T13:56:38.277Z,62.44
2022-10-30T13:57:48.016Z,62.05
2022-10-30T13:58:55.949Z,61.70
2022-10-30T14:00:14.858Z,61.42
2022-10-30T14:01:28.060Z,61.40
2022-10-30T14:03:08.151Z,61.34
2022-10-30T14:04:15.087Z,61.25
2022-10-30T14:05:39.610Z,61.28
2022-10-30T14:06:52.103Z,61.34
2022-10-30T14:08:11.597Z,61.35
2022-10-30T14:09:51.298Z,61.42
2022-10-30T14:11:00.750Z,61.54
2022-10-30T14:12:41.297Z,61.67
2022-10-30T14:13:54.077Z,61.73
2022-10-30T14:15:00.767Z,61.88
2022-10-30T14:16:09.510Z,62.02
2022-10-30T14:17:16.244Z,62.12
2022-10-30T14:18:45.352Z,62.22
2022-10-30T14:20:14.559Z,62.29
2022-10-30T14:21:33.248Z,62.43
2022-10-30T14:22:37.109Z,62.49
2022-10-30T14:23:40.250Z,62.55
2022-10-30T14:24:45.204Z,62.63
2022-10-30T14:26:03.775Z,62.78
2022-10-30T14:27:10.335Z,62.82
2022-10-30T14:28:20.802Z,62.96
2022-10-30T14:29:36.240Z,62.99
2022-10-30T14:30:43.067Z,63.15
2022-10-30T14:31:46.192Z,63.21
2022-10-30T14:32:52.047Z,63.20
2022-10-30T14:33:55.842Z,63.31
2022-10-30T14:34:59.190Z,63.33
2022-10-30T14:36:20.832Z,63.36
2022-10-30T14:37:30.773Z,63.30
2022-10-30T14:38:35.425Z,63.38
2022-10-30T14:39:40.215Z,63.38
2022-10-30T14:41:01.833Z,63.34
2022-10-30T14:42:33.887Z,63.35
2022-10-30T14:43:43.314Z,63.33
2022-10-30T14:45:09.378Z,63.40